sensor_id;sensor_type;location;lat;lon;timestamp;P1;durP1;ratioP1;P2;durP2;ratioP2
21480;SDS011;10902;48.158;8.634;2022-12-10T00:01:45;38.67;;;22.55;;
21480;SDS011;10902;48.158;8.634;2022-12-10T00:04:11;37.88;;;23.83;;
21480;SDS011;10902;48.158;8.634;2022-12-10T00:06:38;43.83;;;25.88;;
21480;SDS011;10902;48.158;8.634;2022-12-10T00:09:05;42.53;;;24.42;;
21480;SDS011;10902;48.158;8.634;2022-12-10T00:11:34;38.25;;;24.35;;
21480;SDS011;10902;48.158;8.634;2022-12-10T00:13:59;41.45;;;24.40;;
21480;SDS011;10902;48.158;8.634;2022-12-10T00:16:26;39.95;;;24.30;;
21480;SDS011;10902;48.158;8.634;2022-12-10T00:18:53;40.17;;;25.08;;
21480;SDS011;10902;48.158;8.634;2022-12-10T00:21:20;40.22;;;23.58;;
21480;SDS011;10902;48.158;8.634;2022-12-10T00:23:48;42.65;;;25.38;;
21480;SDS011;10902;48.158;8.634;2022-12-10T00:28:41;42.92;;;25.40;;
21480;SDS011;10902;48.158;8.634;2022-12-10T00:31:09;41.50;;;25.27;;
21480;SDS011;10902;48.158;8.634;2022-12-10T00:33:37;41.65;;;24.92;;
21480;SDS011;10902;48.158;8.634;2022-12-10T00:36:08;36.65;;;22.67;;
21480;SDS011;10902;48.158;8.634;2022-12-10T00:38:41;39.70;;;24.02;;
21480;SDS011;10902;48.158;8.634;2022-12-10T00:41:07;37.80;;;23.60;;
21480;SDS011;10902;48.158;8.634;2022-12-10T00:43:33;41.50;;;25.25;;
21480;SDS011;10902;48.158;8.634;2022-12-10T00:45:59;36.60;;;22.15;;
21480;SDS011;10902;48.158;8.634;2022-12-10T00:48:25;41.58;;;24.17;;
21480;SDS011;10902;48.158;8.634;2022-12-10T00:50:54;41.78;;;24.13;;
21480;SDS011;10902;48.158;8.634;2022-12-10T00:53:22;44.40;;;25.75;;
21480;SDS011;10902;48.158;8.634;2022-12-10T00:55:48;41.80;;;23.92;;
21480;SDS011;10902;48.158;8.634;2022-12-10T00:58:14;44.35;;;26.27;;
21480;SDS011;10902;48.158;8.634;2022-12-10T01:00:39;42.72;;;25.23;;
21480;SDS011;10902;48.158;8.634;2022-12-10T01:03:05;44.42;;;24.85;;
21480;SDS011;10902;48.158;8.634;2022-12-10T01:05:30;43.60;;;26.05;;
21480;SDS011;10902;48.158;8.634;2022-12-10T01:07:56;46.10;;;26.75;;
21480;SDS011;10902;48.158;8.634;2022-12-10T01:10:22;44.97;;;27.35;;
21480;SDS011;10902;48.158;8.634;2022-12-10T01:12:47;47.25;;;26.90;;
21480;SDS011;10902;48.158;8.634;2022-12-10T01:15:13;44.10;;;26.65;;
21480;SDS011;10902;48.158;8.634;2022-12-10T01:17:38;44.83;;;26.45;;
21480;SDS011;10902;48.158;8.634;2022-12-10T01:20:04;42.95;;;25.95;;
21480;SDS011;10902;48.158;8.634;2022-12-10T01:22:30;44.08;;;26.27;;
21480;SDS011;10902;48.158;8.634;2022-12-10T01:24:56;47.55;;;26.42;;
21480;SDS011;10902;48.158;8.634;2022-12-10T01:27:21;45.85;;;26.25;;
21480;SDS011;10902;48.158;8.634;2022-12-10T01:29:47;48.63;;;27.38;;
21480;SDS011;10902;48.158;8.634;2022-12-10T01:32:12;47.08;;;26.88;;
21480;SDS011;10902;48.158;8.634;2022-12-10T01:34:38;47.28;;;25.95;;
21480;SDS011;10902;48.158;8.634;2022-12-10T01:37:03;42.83;;;25.52;;
21480;SDS011;10902;48.158;8.634;2022-12-10T01:39:29;45.13;;;26.35;;
21480;SDS011;10902;48.158;8.634;2022-12-10T01:41:56;46.72;;;27.02;;
21480;SDS011;10902;48.158;8.634;2022-12-10T01:46:50;55.83;;;30.13;;
21480;SDS011;10902;48.158;8.634;2022-12-10T01:49:21;44.78;;;26.35;;
21480;SDS011;10902;48.158;8.634;2022-12-10T01:52:08;44.65;;;25.27;;
21480;SDS011;10902;48.158;8.634;2022-12-10T01:54:36;45.75;;;25.85;;
21480;SDS011;10902;48.158;8.634;2022-12-10T01:59:32;47.35;;;27.35;;
21480;SDS011;10902;48.158;8.634;2022-12-10T02:02:01;46.55;;;26.98;;
21480;SDS011;10902;48.158;8.634;2022-12-10T02:10:06;47.33;;;25.63;;
21480;SDS011;10902;48.158;8.634;2022-12-10T02:17:51;52.97;;;28.23;;
21480;SDS011;10902;48.158;8.634;2022-12-10T02:22:59;48.58;;;28.27;;
21480;SDS011;10902;48.158;8.634;2022-12-10T02:25:32;51.90;;;28.38;;
21480;SDS011;10902;48.158;8.634;2022-12-10T02:28:23;53.08;;;29.67;;
21480;SDS011;10902;48.158;8.634;2022-12-10T02:31:00;48.15;;;26.33;;
21480;SDS011;10902;48.158;8.634;2022-12-10T02:33:26;54.00;;;28.33;;
21480;SDS011;10902;48.158;8.634;2022-12-10T02:35:54;51.78;;;29.42;;
21480;SDS011;10902;48.158;8.634;2022-12-10T02:38:24;54.20;;;28.35;;
21480;SDS011;10902;48.158;8.634;2022-12-10T02:40:54;59.75;;;30.50;;
21480;SDS011;10902;48.158;8.634;2022-12-10T02:43:30;57.78;;;31.35;;
21480;SDS011;10902;48.158;8.634;2022-12-10T02:45:56;55.63;;;29.83;;
21480;SDS011;10902;48.158;8.634;2022-12-10T02:48:23;51.13;;;27.27;;
21480;SDS011;10902;48.158;8.634;2022-12-10T02:50:50;56.10;;;28.50;;
21480;SDS011;10902;48.158;8.634;2022-12-10T02:53:15;52.33;;;27.25;;
21480;SDS011;10902;48.158;8.634;2022-12-10T03:00:57;50.88;;;27.23;;
21480;SDS011;10902;48.158;8.634;2022-12-10T03:03:43;53.80;;;27.48;;
21480;SDS011;10902;48.158;8.634;2022-12-10T03:06:20;52.75;;;27.67;;
21480;SDS011;10902;48.158;8.634;2022-12-10T03:11:44;54.00;;;27.30;;
21480;SDS011;10902;48.158;8.634;2022-12-10T03:14:14;57.63;;;29.48;;
21480;SDS011;10902;48.158;8.634;2022-12-10T03:16:48;56.35;;;30.27;;
21480;SDS011;10902;48.158;8.634;2022-12-10T03:19:19;59.38;;;28.42;;
21480;SDS011;10902;48.158;8.634;2022-12-10T03:21:49;52.25;;;28.88;;
21480;SDS011;10902;48.158;8.634;2022-12-10T03:24:16;61.20;;;30.15;;
21480;SDS011;10902;48.158;8.634;2022-12-10T03:26:43;56.35;;;28.27;;
21480;SDS011;10902;48.158;8.634;2022-12-10T03:29:13;53.47;;;27.10;;
21480;SDS011;10902;48.158;8.634;2022-12-10T03:31:43;54.85;;;27.92;;
21480;SDS011;10902;48.158;8.634;2022-12-10T03:34:10;48.63;;;25.90;;
21480;SDS011;10902;48.158;8.634;2022-12-10T03:36:36;52.05;;;27.17;;
21480;SDS011;10902;48.158;8.634;2022-12-10T03:39:04;51.00;;;25.13;;
21480;SDS011;10902;48.158;8.634;2022-12-10T03:41:30;51.28;;;26.88;;
21480;SDS011;10902;48.158;8.634;2022-12-10T03:43:56;54.13;;;26.65;;
21480;SDS011;10902;48.158;8.634;2022-12-10T03:46:24;54.28;;;27.88;;
21480;SDS011;10902;48.158;8.634;2022-12-10T03:48:53;51.88;;;26.60;;
21480;SDS011;10902;48.158;8.634;2022-12-10T03:51:19;55.28;;;28.48;;
21480;SDS011;10902;48.158;8.634;2022-12-10T03:53:45;53.28;;;27.10;;
21480;SDS011;10902;48.158;8.634;2022-12-10T03:56:11;53.70;;;26.42;;
21480;SDS011;10902;48.158;8.634;2022-12-10T03:58:37;49.85;;;25.85;;
21480;SDS011;10902;48.158;8.634;2022-12-10T04:01:05;50.35;;;27.45;;
21480;SDS011;10902;48.158;8.634;2022-12-10T04:03:34;55.60;;;26.45;;
21480;SDS011;10902;48.158;8.634;2022-12-10T04:06:04;53.00;;;26.75;;
21480;SDS011;10902;48.158;8.634;2022-12-10T04:08:32;57.22;;;28.90;;
21480;SDS011;10902;48.158;8.634;2022-12-10T04:11:03;59.85;;;28.10;;
21480;SDS011;10902;48.158;8.634;2022-12-10T04:13:31;51.65;;;25.65;;
21480;SDS011;10902;48.158;8.634;2022-12-10T04:16:16;64.63;;;27.92;;
21480;SDS011;10902;48.158;8.634;2022-12-10T04:19:16;49.38;;;25.63;;
21480;SDS011;10902;48.158;8.634;2022-12-10T04:21:41;51.72;;;26.13;;
21480;SDS011;10902;48.158;8.634;2022-12-10T04:24:27;56.60;;;28.10;;
21480;SDS011;10902;48.158;8.634;2022-12-10T04:27:16;52.22;;;26.75;;
21480;SDS011;10902;48.158;8.634;2022-12-10T04:29:51;57.78;;;27.67;;
21480;SDS011;10902;48.158;8.634;2022-12-10T04:32:18;72.05;;;28.73;;
21480;SDS011;10902;48.158;8.634;2022-12-10T04:34:44;57.15;;;26.05;;
21480;SDS011;10902;48.158;8.634;2022-12-10T04:37:10;62.45;;;29.70;;
21480;SDS011;10902;48.158;8.634;2022-12-10T04:39:38;64.60;;;28.50;;
21480;SDS011;10902;48.158;8.634;2022-12-10T04:42:05;60.92;;;27.42;;
21480;SDS011;10902;48.158;8.634;2022-12-10T04:44:31;115.90;;;32.55;;
21480;SDS011;10902;48.158;8.634;2022-12-10T04:46:57;58.53;;;28.95;;
21480;SDS011;10902;48.158;8.634;2022-12-10T04:49:22;60.88;;;28.92;;
21480;SDS011;10902;48.158;8.634;2022-12-10T04:51:48;60.78;;;29.10;;
21480;SDS011;10902;48.158;8.634;2022-12-10T04:54:14;63.10;;;28.38;;
21480;SDS011;10902;48.158;8.634;2022-12-10T04:56:40;59.40;;;29.17;;
21480;SDS011;10902;48.158;8.634;2022-12-10T04:59:07;79.82;;;30.08;;
21480;SDS011;10902;48.158;8.634;2022-12-10T05:01:33;66.88;;;29.27;;
21480;SDS011;10902;48.158;8.634;2022-12-10T05:04:00;112.45;;;34.72;;
21480;SDS011;10902;48.158;8.634;2022-12-10T05:06:27;59.67;;;28.95;;
21480;SDS011;10902;48.158;8.634;2022-12-10T05:08:53;76.20;;;31.52;;
21480;SDS011;10902;48.158;8.634;2022-12-10T05:11:20;58.78;;;29.40;;
21480;SDS011;10902;48.158;8.634;2022-12-10T05:13:47;75.55;;;30.80;;
21480;SDS011;10902;48.158;8.634;2022-12-10T05:16:15;68.70;;;30.40;;
21480;SDS011;10902;48.158;8.634;2022-12-10T05:18:42;56.88;;;28.50;;
21480;SDS011;10902;48.158;8.634;2022-12-10T05:21:12;56.78;;;29.55;;
21480;SDS011;10902;48.158;8.634;2022-12-10T05:23:42;62.70;;;30.77;;
21480;SDS011;10902;48.158;8.634;2022-12-10T05:26:11;59.30;;;30.63;;
21480;SDS011;10902;48.158;8.634;2022-12-10T05:28:57;55.28;;;28.58;;
21480;SDS011;10902;48.158;8.634;2022-12-10T05:31:24;53.85;;;28.88;;
21480;SDS011;10902;48.158;8.634;2022-12-10T05:33:51;57.78;;;29.02;;
21480;SDS011;10902;48.158;8.634;2022-12-10T05:36:19;57.15;;;29.77;;
21480;SDS011;10902;48.158;8.634;2022-12-10T05:38:46;57.55;;;29.45;;
21480;SDS011;10902;48.158;8.634;2022-12-10T05:41:21;54.50;;;30.45;;
21480;SDS011;10902;48.158;8.634;2022-12-10T05:43:53;49.42;;;27.73;;
21480;SDS011;10902;48.158;8.634;2022-12-10T05:46:24;49.08;;;26.98;;
21480;SDS011;10902;48.158;8.634;2022-12-10T05:48:52;54.42;;;29.20;;
21480;SDS011;10902;48.158;8.634;2022-12-10T05:51:19;50.75;;;27.95;;
21480;SDS011;10902;48.158;8.634;2022-12-10T05:53:46;50.63;;;27.75;;
21480;SDS011;10902;48.158;8.634;2022-12-10T05:56:13;54.22;;;29.70;;
21480;SDS011;10902;48.158;8.634;2022-12-10T05:58:42;48.08;;;27.13;;
21480;SDS011;10902;48.158;8.634;2022-12-10T06:01:15;46.83;;;26.40;;
21480;SDS011;10902;48.158;8.634;2022-12-10T06:03:42;48.85;;;27.42;;
21480;SDS011;10902;48.158;8.634;2022-12-10T06:06:08;44.63;;;26.20;;
21480;SDS011;10902;48.158;8.634;2022-12-10T06:08:35;49.20;;;26.17;;
21480;SDS011;10902;48.158;8.634;2022-12-10T06:11:05;52.20;;;27.52;;
21480;SDS011;10902;48.158;8.634;2022-12-10T06:13:33;49.33;;;27.35;;
21480;SDS011;10902;48.158;8.634;2022-12-10T06:16:03;51.95;;;28.40;;
21480;SDS011;10902;48.158;8.634;2022-12-10T06:18:30;47.63;;;26.77;;
21480;SDS011;10902;48.158;8.634;2022-12-10T06:20:56;50.13;;;27.60;;
21480;SDS011;10902;48.158;8.634;2022-12-10T06:23:21;50.88;;;27.38;;
21480;SDS011;10902;48.158;8.634;2022-12-10T06:25:47;55.33;;;28.10;;
21480;SDS011;10902;48.158;8.634;2022-12-10T06:28:12;49.85;;;27.48;;
21480;SDS011;10902;48.158;8.634;2022-12-10T06:30:38;50.67;;;26.83;;
21480;SDS011;10902;48.158;8.634;2022-12-10T06:33:03;56.15;;;27.33;;
21480;SDS011;10902;48.158;8.634;2022-12-10T06:35:29;55.65;;;28.83;;
21480;SDS011;10902;48.158;8.634;2022-12-10T06:37:55;62.05;;;30.88;;
21480;SDS011;10902;48.158;8.634;2022-12-10T06:40:20;55.40;;;28.90;;
21480;SDS011;10902;48.158;8.634;2022-12-10T06:42:46;50.35;;;28.05;;
21480;SDS011;10902;48.158;8.634;2022-12-10T06:45:11;59.65;;;30.23;;
21480;SDS011;10902;48.158;8.634;2022-12-10T06:47:37;58.45;;;29.27;;
21480;SDS011;10902;48.158;8.634;2022-12-10T06:50:03;58.80;;;29.83;;
21480;SDS011;10902;48.158;8.634;2022-12-10T06:52:29;60.28;;;31.20;;
21480;SDS011;10902;48.158;8.634;2022-12-10T06:54:54;59.78;;;30.88;;
21480;SDS011;10902;48.158;8.634;2022-12-10T06:57:20;66.35;;;31.40;;
21480;SDS011;10902;48.158;8.634;2022-12-10T06:59:46;59.17;;;30.98;;
21480;SDS011;10902;48.158;8.634;2022-12-10T07:02:12;65.22;;;31.55;;
21480;SDS011;10902;48.158;8.634;2022-12-10T07:04:37;77.13;;;31.88;;
21480;SDS011;10902;48.158;8.634;2022-12-10T07:07:04;60.00;;;29.80;;
21480;SDS011;10902;48.158;8.634;2022-12-10T07:09:31;63.70;;;31.35;;
21480;SDS011;10902;48.158;8.634;2022-12-10T07:11:57;75.95;;;31.20;;
21480;SDS011;10902;48.158;8.634;2022-12-10T07:14:23;172.13;;;39.67;;
21480;SDS011;10902;48.158;8.634;2022-12-10T07:16:48;69.85;;;33.28;;
21480;SDS011;10902;48.158;8.634;2022-12-10T07:19:14;98.13;;;32.72;;
21480;SDS011;10902;48.158;8.634;2022-12-10T07:21:40;158.82;;;40.67;;
21480;SDS011;10902;48.158;8.634;2022-12-10T07:24:09;73.05;;;34.33;;
21480;SDS011;10902;48.158;8.634;2022-12-10T07:26:37;81.57;;;32.30;;
21480;SDS011;10902;48.158;8.634;2022-12-10T07:29:05;303.55;;;57.38;;
21480;SDS011;10902;48.158;8.634;2022-12-10T07:31:33;81.65;;;35.38;;
21480;SDS011;10902;48.158;8.634;2022-12-10T07:33:59;79.53;;;33.40;;
21480;SDS011;10902;48.158;8.634;2022-12-10T07:36:25;77.00;;;34.53;;
21480;SDS011;10902;48.158;8.634;2022-12-10T07:38:52;86.18;;;32.80;;
21480;SDS011;10902;48.158;8.634;2022-12-10T07:41:19;77.95;;;32.60;;
21480;SDS011;10902;48.158;8.634;2022-12-10T07:43:45;74.32;;;33.13;;
21480;SDS011;10902;48.158;8.634;2022-12-10T07:48:40;70.32;;;33.20;;
21480;SDS011;10902;48.158;8.634;2022-12-10T07:51:07;72.60;;;32.85;;
21480;SDS011;10902;48.158;8.634;2022-12-10T07:53:33;128.25;;;36.65;;
21480;SDS011;10902;48.158;8.634;2022-12-10T07:55:59;75.50;;;35.35;;
21480;SDS011;10902;48.158;8.634;2022-12-10T07:58:25;88.03;;;35.50;;
21480;SDS011;10902;48.158;8.634;2022-12-10T08:00:50;79.70;;;33.45;;
21480;SDS011;10902;48.158;8.634;2022-12-10T08:03:16;72.32;;;34.65;;
21480;SDS011;10902;48.158;8.634;2022-12-10T08:05:41;66.63;;;32.55;;
21480;SDS011;10902;48.158;8.634;2022-12-10T08:08:07;63.45;;;31.13;;
21480;SDS011;10902;48.158;8.634;2022-12-10T08:10:33;66.57;;;32.30;;
21480;SDS011;10902;48.158;8.634;2022-12-10T08:12:59;71.25;;;34.45;;
21480;SDS011;10902;48.158;8.634;2022-12-10T08:15:25;68.30;;;33.58;;
21480;SDS011;10902;48.158;8.634;2022-12-10T08:17:53;67.07;;;33.97;;
21480;SDS011;10902;48.158;8.634;2022-12-10T08:20:20;64.65;;;32.40;;
21480;SDS011;10902;48.158;8.634;2022-12-10T08:22:45;59.25;;;32.75;;
21480;SDS011;10902;48.158;8.634;2022-12-10T08:25:11;66.47;;;33.58;;
21480;SDS011;10902;48.158;8.634;2022-12-10T08:27:37;64.70;;;34.20;;
21480;SDS011;10902;48.158;8.634;2022-12-10T08:30:03;58.55;;;32.08;;
21480;SDS011;10902;48.158;8.634;2022-12-10T08:32:29;58.92;;;31.75;;
21480;SDS011;10902;48.158;8.634;2022-12-10T08:34:55;58.22;;;30.77;;
21480;SDS011;10902;48.158;8.634;2022-12-10T08:37:20;56.67;;;28.55;;
21480;SDS011;10902;48.158;8.634;2022-12-10T08:39:46;56.28;;;29.73;;
21480;SDS011;10902;48.158;8.634;2022-12-10T08:42:12;54.97;;;28.70;;
21480;SDS011;10902;48.158;8.634;2022-12-10T08:44:38;53.92;;;28.90;;
21480;SDS011;10902;48.158;8.634;2022-12-10T08:47:04;53.95;;;28.90;;
21480;SDS011;10902;48.158;8.634;2022-12-10T08:49:29;50.47;;;28.83;;
21480;SDS011;10902;48.158;8.634;2022-12-10T08:51:55;56.60;;;29.75;;
21480;SDS011;10902;48.158;8.634;2022-12-10T08:54:21;59.72;;;31.90;;
21480;SDS011;10902;48.158;8.634;2022-12-10T08:56:46;53.58;;;29.73;;
21480;SDS011;10902;48.158;8.634;2022-12-10T08:59:12;53.58;;;30.23;;
21480;SDS011;10902;48.158;8.634;2022-12-10T09:01:38;50.05;;;29.00;;
21480;SDS011;10902;48.158;8.634;2022-12-10T09:04:04;50.15;;;27.20;;
21480;SDS011;10902;48.158;8.634;2022-12-10T09:06:29;48.50;;;27.25;;
21480;SDS011;10902;48.158;8.634;2022-12-10T09:08:55;52.60;;;29.00;;
21480;SDS011;10902;48.158;8.634;2022-12-10T09:11:25;49.38;;;28.25;;
21480;SDS011;10902;48.158;8.634;2022-12-10T09:13:53;50.85;;;28.10;;
21480;SDS011;10902;48.158;8.634;2022-12-10T09:16:19;53.65;;;29.55;;
21480;SDS011;10902;48.158;8.634;2022-12-10T09:18:44;50.97;;;29.27;;
21480;SDS011;10902;48.158;8.634;2022-12-10T09:21:14;51.13;;;28.70;;
21480;SDS011;10902;48.158;8.634;2022-12-10T09:23:41;45.83;;;26.02;;
21480;SDS011;10902;48.158;8.634;2022-12-10T09:26:08;48.13;;;27.95;;
21480;SDS011;10902;48.158;8.634;2022-12-10T09:28:36;50.08;;;26.50;;
21480;SDS011;10902;48.158;8.634;2022-12-10T09:31:02;52.58;;;28.83;;
21480;SDS011;10902;48.158;8.634;2022-12-10T09:33:29;50.58;;;28.83;;
21480;SDS011;10902;48.158;8.634;2022-12-10T09:35:55;48.60;;;27.35;;
21480;SDS011;10902;48.158;8.634;2022-12-10T09:38:21;49.47;;;27.25;;
21480;SDS011;10902;48.158;8.634;2022-12-10T09:43:43;48.08;;;28.17;;
21480;SDS011;10902;48.158;8.634;2022-12-10T09:51:38;45.28;;;27.27;;
21480;SDS011;10902;48.158;8.634;2022-12-10T09:54:04;47.97;;;27.70;;
21480;SDS011;10902;48.158;8.634;2022-12-10T09:56:47;49.28;;;28.80;;
21480;SDS011;10902;48.158;8.634;2022-12-10T10:02:19;45.97;;;27.48;;
21480;SDS011;10902;48.158;8.634;2022-12-10T10:04:49;47.15;;;27.45;;
21480;SDS011;10902;48.158;8.634;2022-12-10T10:07:20;45.67;;;28.30;;
21480;SDS011;10902;48.158;8.634;2022-12-10T10:09:49;48.45;;;28.48;;
21480;SDS011;10902;48.158;8.634;2022-12-10T10:12:19;49.42;;;28.35;;
21480;SDS011;10902;48.158;8.634;2022-12-10T10:14:45;45.55;;;27.52;;
21480;SDS011;10902;48.158;8.634;2022-12-10T10:17:16;49.78;;;29.73;;
21480;SDS011;10902;48.158;8.634;2022-12-10T10:19:47;48.92;;;30.20;;
21480;SDS011;10902;48.158;8.634;2022-12-10T10:22:14;46.08;;;27.55;;
21480;SDS011;10902;48.158;8.634;2022-12-10T10:24:43;46.90;;;28.80;;
21480;SDS011;10902;48.158;8.634;2022-12-10T10:27:15;48.90;;;28.55;;
21480;SDS011;10902;48.158;8.634;2022-12-10T10:29:46;48.70;;;28.65;;
21480;SDS011;10902;48.158;8.634;2022-12-10T10:34:53;45.88;;;27.48;;
21480;SDS011;10902;48.158;8.634;2022-12-10T10:37:21;43.83;;;28.25;;
21480;SDS011;10902;48.158;8.634;2022-12-10T10:40:04;45.92;;;27.33;;
21480;SDS011;10902;48.158;8.634;2022-12-10T10:42:35;48.40;;;29.45;;
21480;SDS011;10902;48.158;8.634;2022-12-10T10:45:04;49.10;;;28.70;;
21480;SDS011;10902;48.158;8.634;2022-12-10T10:47:32;43.63;;;27.08;;
21480;SDS011;10902;48.158;8.634;2022-12-10T10:50:03;43.20;;;26.42;;
21480;SDS011;10902;48.158;8.634;2022-12-10T10:52:30;42.42;;;25.90;;
21480;SDS011;10902;48.158;8.634;2022-12-10T10:55:01;41.80;;;24.23;;
21480;SDS011;10902;48.158;8.634;2022-12-10T10:57:36;37.90;;;23.75;;
21480;SDS011;10902;48.158;8.634;2022-12-10T11:00:07;39.50;;;23.95;;
21480;SDS011;10902;48.158;8.634;2022-12-10T11:02:44;38.28;;;23.92;;
21480;SDS011;10902;48.158;8.634;2022-12-10T11:07:57;36.58;;;21.15;;
21480;SDS011;10902;48.158;8.634;2022-12-10T11:10:30;35.40;;;20.67;;
21480;SDS011;10902;48.158;8.634;2022-12-10T11:13:14;27.70;;;17.35;;
21480;SDS011;10902;48.158;8.634;2022-12-10T11:16:00;28.15;;;17.60;;
21480;SDS011;10902;48.158;8.634;2022-12-10T11:18:36;27.83;;;16.65;;
21480;SDS011;10902;48.158;8.634;2022-12-10T11:23:53;27.08;;;16.02;;
21480;SDS011;10902;48.158;8.634;2022-12-10T11:51:31;22.05;;;13.90;;
21480;SDS011;10902;48.158;8.634;2022-12-10T11:56:49;24.05;;;13.65;;
21480;SDS011;10902;48.158;8.634;2022-12-10T12:11:06;24.55;;;14.55;;
21480;SDS011;10902;48.158;8.634;2022-12-10T12:13:57;25.73;;;15.07;;
21480;SDS011;10902;48.158;8.634;2022-12-10T12:16:35;23.02;;;15.32;;
21480;SDS011;10902;48.158;8.634;2022-12-10T12:19:11;24.80;;;14.82;;
21480;SDS011;10902;48.158;8.634;2022-12-10T12:21:41;25.50;;;14.05;;
21480;SDS011;10902;48.158;8.634;2022-12-10T12:24:33;25.88;;;15.23;;
21480;SDS011;10902;48.158;8.634;2022-12-10T12:27:02;22.80;;;14.85;;
21480;SDS011;10902;48.158;8.634;2022-12-10T12:29:30;21.25;;;13.60;;
21480;SDS011;10902;48.158;8.634;2022-12-10T12:37:03;23.75;;;14.38;;
21480;SDS011;10902;48.158;8.634;2022-12-10T12:39:34;22.42;;;13.82;;
21480;SDS011;10902;48.158;8.634;2022-12-10T12:45:03;21.20;;;13.35;;
21480;SDS011;10902;48.158;8.634;2022-12-10T12:48:01;20.60;;;12.93;;
21480;SDS011;10902;48.158;8.634;2022-12-10T12:50:43;22.58;;;13.85;;
21480;SDS011;10902;48.158;8.634;2022-12-10T12:53:17;20.48;;;13.15;;
21480;SDS011;10902;48.158;8.634;2022-12-10T12:55:56;27.20;;;15.27;;
21480;SDS011;10902;48.158;8.634;2022-12-10T13:04:02;24.05;;;15.40;;
21480;SDS011;10902;48.158;8.634;2022-12-10T13:06:31;22.25;;;13.75;;
21480;SDS011;10902;48.158;8.634;2022-12-10T13:11:39;29.63;;;16.88;;
21480;SDS011;10902;48.158;8.634;2022-12-10T13:19:15;25.55;;;15.70;;
21480;SDS011;10902;48.158;8.634;2022-12-10T13:22:00;25.27;;;16.38;;
21480;SDS011;10902;48.158;8.634;2022-12-10T13:37:35;28.90;;;16.83;;
21480;SDS011;10902;48.158;8.634;2022-12-10T13:42:40;32.67;;;17.75;;
21480;SDS011;10902;48.158;8.634;2022-12-10T13:45:30;30.40;;;17.42;;
21480;SDS011;10902;48.158;8.634;2022-12-10T13:53:30;29.33;;;17.60;;
21480;SDS011;10902;48.158;8.634;2022-12-10T13:56:06;28.85;;;17.48;;
21480;SDS011;10902;48.158;8.634;2022-12-10T14:07:28;25.98;;;15.73;;
21480;SDS011;10902;48.158;8.634;2022-12-10T14:09:56;24.33;;;14.20;;
21480;SDS011;10902;48.158;8.634;2022-12-10T14:12:29;21.48;;;13.20;;
21480;SDS011;10902;48.158;8.634;2022-12-10T14:15:01;23.13;;;13.57;;
21480;SDS011;10902;48.158;8.634;2022-12-10T14:17:34;22.92;;;13.77;;
21480;SDS011;10902;48.158;8.634;2022-12-10T14:20:06;25.33;;;15.35;;
21480;SDS011;10902;48.158;8.634;2022-12-10T14:22:35;23.77;;;14.05;;
21480;SDS011;10902;48.158;8.634;2022-12-10T14:25:05;24.95;;;14.30;;
21480;SDS011;10902;48.158;8.634;2022-12-10T14:27:37;22.95;;;13.70;;
21480;SDS011;10902;48.158;8.634;2022-12-10T14:32:49;21.83;;;12.88;;
21480;SDS011;10902;48.158;8.634;2022-12-10T14:35:16;22.38;;;12.68;;
21480;SDS011;10902;48.158;8.634;2022-12-10T14:37:45;24.02;;;14.13;;
21480;SDS011;10902;48.158;8.634;2022-12-10T14:42:47;22.20;;;13.18;;
21480;SDS011;10902;48.158;8.634;2022-12-10T14:45:14;23.70;;;13.82;;
21480;SDS011;10902;48.158;8.634;2022-12-10T14:47:41;19.77;;;12.32;;
21480;SDS011;10902;48.158;8.634;2022-12-10T14:50:10;24.50;;;13.02;;
21480;SDS011;10902;48.158;8.634;2022-12-10T14:52:42;24.73;;;14.00;;
21480;SDS011;10902;48.158;8.634;2022-12-10T14:55:16;22.77;;;13.98;;
21480;SDS011;10902;48.158;8.634;2022-12-10T14:57:47;24.10;;;14.68;;
21480;SDS011;10902;48.158;8.634;2022-12-10T15:00:20;29.08;;;17.70;;
21480;SDS011;10902;48.158;8.634;2022-12-10T15:02:48;20.40;;;13.05;;
21480;SDS011;10902;48.158;8.634;2022-12-10T15:05:19;21.95;;;13.30;;
21480;SDS011;10902;48.158;8.634;2022-12-10T15:07:55;23.60;;;14.32;;
21480;SDS011;10902;48.158;8.634;2022-12-10T15:10:24;23.60;;;13.77;;
21480;SDS011;10902;48.158;8.634;2022-12-10T15:12:57;22.45;;;13.52;;
21480;SDS011;10902;48.158;8.634;2022-12-10T15:20:37;23.52;;;13.75;;
21480;SDS011;10902;48.158;8.634;2022-12-10T15:28:37;25.38;;;14.13;;
21480;SDS011;10902;48.158;8.634;2022-12-10T15:36:37;23.38;;;13.35;;
21480;SDS011;10902;48.158;8.634;2022-12-10T15:39:35;22.92;;;13.05;;
21480;SDS011;10902;48.158;8.634;2022-12-10T15:42:08;20.92;;;12.30;;
21480;SDS011;10902;48.158;8.634;2022-12-10T15:44:54;19.90;;;12.00;;
21480;SDS011;10902;48.158;8.634;2022-12-10T15:47:22;18.27;;;12.02;;
21480;SDS011;10902;48.158;8.634;2022-12-10T15:49:50;20.83;;;12.70;;
21480;SDS011;10902;48.158;8.634;2022-12-10T15:52:18;19.42;;;11.82;;
21480;SDS011;10902;48.158;8.634;2022-12-10T15:54:52;16.25;;;10.60;;
21480;SDS011;10902;48.158;8.634;2022-12-10T15:57:21;19.60;;;11.50;;
21480;SDS011;10902;48.158;8.634;2022-12-10T15:59:52;19.10;;;11.63;;
21480;SDS011;10902;48.158;8.634;2022-12-10T16:04:57;19.52;;;11.88;;
21480;SDS011;10902;48.158;8.634;2022-12-10T16:07:23;18.35;;;11.63;;
21480;SDS011;10902;48.158;8.634;2022-12-10T16:09:48;14.80;;;9.85;;
21480;SDS011;10902;48.158;8.634;2022-12-10T16:12:14;18.02;;;11.27;;
21480;SDS011;10902;48.158;8.634;2022-12-10T16:14:43;19.05;;;11.20;;
21480;SDS011;10902;48.158;8.634;2022-12-10T16:17:13;16.00;;;10.32;;
21480;SDS011;10902;48.158;8.634;2022-12-10T16:19:39;17.05;;;10.68;;
21480;SDS011;10902;48.158;8.634;2022-12-10T16:22:05;17.13;;;10.30;;
21480;SDS011;10902;48.158;8.634;2022-12-10T16:24:31;16.20;;;9.98;;
21480;SDS011;10902;48.158;8.634;2022-12-10T16:26:56;15.75;;;9.40;;
21480;SDS011;10902;48.158;8.634;2022-12-10T16:29:22;17.60;;;10.68;;
21480;SDS011;10902;48.158;8.634;2022-12-10T16:31:48;16.88;;;10.40;;
21480;SDS011;10902;48.158;8.634;2022-12-10T16:34:14;16.83;;;10.93;;
21480;SDS011;10902;48.158;8.634;2022-12-10T16:36:40;17.17;;;10.95;;
21480;SDS011;10902;48.158;8.634;2022-12-10T16:39:05;16.80;;;11.18;;
21480;SDS011;10902;48.158;8.634;2022-12-10T16:41:31;18.55;;;11.32;;
21480;SDS011;10902;48.158;8.634;2022-12-10T16:43:57;17.48;;;11.02;;
21480;SDS011;10902;48.158;8.634;2022-12-10T16:46:23;18.13;;;11.63;;
21480;SDS011;10902;48.158;8.634;2022-12-10T16:48:48;21.58;;;13.77;;
21480;SDS011;10902;48.158;8.634;2022-12-10T16:51:15;17.60;;;10.75;;
21480;SDS011;10902;48.158;8.634;2022-12-10T16:53:46;20.63;;;13.10;;
21480;SDS011;10902;48.158;8.634;2022-12-10T16:56:13;22.88;;;15.68;;
21480;SDS011;10902;48.158;8.634;2022-12-10T16:58:39;20.00;;;13.55;;
21480;SDS011;10902;48.158;8.634;2022-12-10T17:01:09;21.98;;;13.77;;
21480;SDS011;10902;48.158;8.634;2022-12-10T17:03:47;20.48;;;14.65;;
21480;SDS011;10902;48.158;8.634;2022-12-10T17:06:14;21.35;;;14.55;;
21480;SDS011;10902;48.158;8.634;2022-12-10T17:08:40;26.85;;;16.35;;
21480;SDS011;10902;48.158;8.634;2022-12-10T17:14:08;24.80;;;16.30;;
21480;SDS011;10902;48.158;8.634;2022-12-10T17:16:56;24.63;;;15.88;;
21480;SDS011;10902;48.158;8.634;2022-12-10T17:19:24;26.00;;;16.58;;
21480;SDS011;10902;48.158;8.634;2022-12-10T17:21:52;25.15;;;16.33;;